Private Wetterstation Grnau im Almtal
www.gruenau.tv

Wetterdaten: aktuell Dienstag, 27.06.2017 17:35
Datum Zeit Temperatur Temp. min Temp. max Luftfeuchte Luftdruck Regen Wind Richtung Richtung Sonne ET UV Solar Taupunkt Windchill Windben
27.06.2017 17:35 18,3 C 18,3 C 18,3 C 87 % 1006,5 hPa 0,0 l/m 4,3 km/h (1 Bft) SO 133 0 min 0,025 mm 0,6 UV-I 137 W/m 16,1 C 18,3 C 9,7 km/h (2 Bft)
27.06.2017 16:35 19,2 C 19,2 C 19,3 C 81 % 1006,9 hPa 0,0 l/m 2,8 km/h (1 Bft) O-SO 120 0 min 0,152 mm 0,0 UV-I 9 W/m 15,9 C 19,2 C 4,8 km/h (1 Bft)
27.06.2017 15:35 24,2 C 24,2 C 24,3 C 68 % 1006,4 hPa 0,0 l/m 9,2 km/h (2 Bft) N-NW 333 25 min 0,584 mm 0,0 UV-I 46 W/m 17,9 C 23,5 C 14,5 km/h (3 Bft)
27.06.2017 14:35 25,9 C 25,8 C 25,9 C 69 % 1006,3 hPa 0,0 l/m 12,5 km/h (3 Bft) N 357 60 min 0,457 mm 7,3 UV-I 919 W/m 19,8 C 24,7 C 19,3 km/h (3 Bft)
27.06.2017 13:35 24,6 C 24,3 C 24,6 C 67 % 1007,1 hPa 0,0 l/m 4,7 km/h (1 Bft) N-NW 343 35 min 0,483 mm 5,6 UV-I 490 W/m 18,1 C 24,6 C 9,7 km/h (2 Bft)
27.06.2017 12:35 25,3 C 25,2 C 25,4 C 64 % 1007,8 hPa 0,0 l/m 0,9 km/h (0 Bft) N 7 50 min 0,432 mm 8,3 UV-I 983 W/m 18,0 C 25,3 C 4,8 km/h (1 Bft)
27.06.2017 11:35 22,9 C 22,7 C 22,9 C 70 % 1008,4 hPa 0,0 l/m 4,6 km/h (1 Bft) N 8 60 min 0,406 mm 7,4 UV-I 977 W/m 17,1 C 22,9 C 9,7 km/h (2 Bft)
27.06.2017 10:35 20,7 C 20,7 C 20,8 C 78 % 1009,4 hPa 0,0 l/m 11,0 km/h (2 Bft) N-NW 344 50 min 0,203 mm 4,2 UV-I 476 W/m 16,7 C 19,1 C 22,5 km/h (4 Bft)
27.06.2017 09:35 21,5 C 21,3 C 21,5 C 75 % 1009,3 hPa 0,0 l/m 1,8 km/h (1 Bft) SO 137 0 min 0,102 mm 1,9 UV-I 267 W/m 16,9 C 21,5 C 3,2 km/h (1 Bft)
27.06.2017 08:35 20,1 C 19,8 C 20,1 C 81 % 1009,9 hPa 0,0 l/m 0,3 km/h (0 Bft) N 1 0 min 0,076 mm 1,2 UV-I 241 W/m 16,7 C 20,1 C 1,6 km/h (1 Bft)
27.06.2017 07:35 17,4 C 17,2 C 17,4 C 86 % 1009,4 hPa 0,0 l/m 0,8 km/h (0 Bft) SO 137 0 min 0,025 mm 0,6 UV-I 127 W/m 15,0 C 17,4 C 4,8 km/h (1 Bft)
27.06.2017 06:35 16,0 C 16,0 C 16,1 C 86 % 1008,7 hPa 0,0 l/m 2,7 km/h (1 Bft) SW 232 0 min 0,025 mm 0,0 UV-I 65 W/m 13,7 C 16,0 C 4,8 km/h (1 Bft)
27.06.2017 05:35 16,0 C 15,9 C 16,0 C 86 % 1008,0 hPa 0,0 l/m 3,7 km/h (1 Bft) S 170 5 min 0,000 mm 0,0 UV-I 16 W/m 13,7 C 16,0 C 8,0 km/h (2 Bft)
27.06.2017 04:35 16,1 C 16,1 C 16,2 C 85 % 1008,1 hPa 0,0 l/m 0,0 km/h (0 Bft) S-SO 147 0 min 0,025 mm 0,0 UV-I 0 W/m 13,6 C 16,1 C 0,0 km/h (0 Bft)
27.06.2017 03:35 16,3 C 16,3 C 16,3 C 84 % 1008,3 hPa 0,0 l/m 4,7 km/h (1 Bft) O-SO 120 0 min 0,025 mm 0,0 UV-I 0 W/m 13,6 C 16,3 C 8,0 km/h (2 Bft)
27.06.2017 02:35 16,2 C 16,2 C 16,2 C 84 % 1008,3 hPa 0,0 l/m 6,7 km/h (2 Bft) O-SO 122 0 min 0,025 mm 0,0 UV-I 0 W/m 13,5 C 16,1 C 12,9 km/h (3 Bft)
27.06.2017 01:35 16,7 C 16,6 C 16,7 C 83 % 1008,6 hPa 0,0 l/m 8,9 km/h (2 Bft) S-SO 166 0 min 0,025 mm 0,0 UV-I 0 W/m 13,8 C 15,5 C 16,1 km/h (3 Bft)
27.06.2017 00:35 17,3 C 17,3 C 17,4 C 81 % 1009,0 hPa 0,0 l/m 2,6 km/h (1 Bft) O-SO 112 0 min 0,025 mm 0,0 UV-I 0 W/m 14,0 C 17,3 C 6,4 km/h (2 Bft)
26.06.2017 23:35 18,1 C 18,1 C 18,2 C 80 % 1009,3 hPa 0,0 l/m 3,2 km/h (1 Bft) S-SO 158 0 min 0,025 mm 0,0 UV-I 0 W/m 14,6 C 18,1 C 8,0 km/h (2 Bft)
26.06.2017 22:35 19,5 C 19,5 C 19,5 C 75 % 1009,3 hPa 0,0 l/m 3,8 km/h (1 Bft) O-SO 108 0 min 0,001 mm 0,0 UV-I 0 W/m 14,9 C 19,5 C 8,0 km/h (2 Bft)
26.06.2017 21:35 21,3 C 21,3 C 21,4 C 69 % 1009,4 hPa 0,0 l/m 2,9 km/h (1 Bft) O 101 0 min 0,025 mm 0,0 UV-I 0 W/m 15,4 C 21,3 C 6,4 km/h (2 Bft)
26.06.2017 20:35 23,2 C 23,2 C 23,5 C 63 % 1008,6 hPa 0,0 l/m 2,0 km/h (1 Bft) S-SO 168 10 min 0,127 mm 0,0 UV-I 14 W/m 15,8 C 23,2 C 4,8 km/h (1 Bft)
26.06.2017 19:35 27,3 C 26,5 C 27,3 C 55 % 1008,7 hPa 0,0 l/m 0,2 km/h (0 Bft) W-NW 297 60 min 0,254 mm 0,0 UV-I 135 W/m 17,4 C 27,3 C 1,6 km/h (1 Bft)
26.06.2017 18:35 27,8 C 27,7 C 27,9 C 52 % 1009,0 hPa 0,0 l/m 3,9 km/h (1 Bft) N-NW 334 35 min 0,381 mm 1,1 UV-I 309 W/m 17,0 C 27,8 C 8,0 km/h (2 Bft)
26.06.2017 18:00 28,7 C 28,4 C 29,0 C 44 % 1009,4 hPa 0,0 l/m 6,4 km/h (2 Bft) N-NW 337 0 min 0,381 mm 2,5 UV-I 489 W/m 15,2 C 28,7 C 12,9 km/h (3 Bft)
_ Min-Zeit 05:20 05:20 05:25 18:00 15:05 - 20:05 - - - - - - 05:10 03:05 20:05
Minimum _ 15,8 C 15,8 C 15,8 C 44 % 1006,0 hPa - 0,0 km/h (0 Bft) - - - - - - 13,4 C 14,7 C 0,0 km/h (0 Bft)
_ Max-Zeit 18:00 18:10 18:00 17:30 08:25 18:00 16:05 - - 18:00 15:00 13:45 14:00 14:35 18:00 16:00
Maximum _ 29,0 C 28,5 C 29,0 C 87 % 1009,9 hPa 0,0 l/m 13,9 km/h
NW (3 Bft)
- - 5 min 0,584 mm 8,9 UV-I 1111 W/m 19,8 C 28,7 C 30,6 km/h
W-NW (5 Bft)
Durchschnitt _ 21,2 C 21,0 C 21,4 C 72 % 1008,5 hPa #0,0 l/m 4,3 km/h (1 Bft) SO - #4:45 h #3,095 mm 4,2 UV-I 382 W/m 15,6 C 21,0 C 9,2 km/h (2 Bft)
Rauscher Max - www.gruenau.tv